createdAt,value
2019-05-22T00:01:11.191Z,1003
2019-05-22T00:06:16.218Z,1003
2019-05-22T00:11:26.198Z,1003
2019-05-22T00:16:36.151Z,1003
2019-05-22T00:21:41.133Z,1003
2019-05-22T00:26:46.149Z,1003
2019-05-22T00:31:51.124Z,1003
2019-05-22T00:41:51.613Z,1003
2019-05-22T00:46:56.394Z,1003
2019-05-22T00:52:01.379Z,1003
2019-05-22T00:57:11.355Z,1003
2019-05-22T01:02:21.345Z,1003
2019-05-22T01:07:26.417Z,1003
2019-05-22T01:12:31.524Z,1003
2019-05-22T01:17:36.390Z,1003
2019-05-22T01:22:41.435Z,1003
2019-05-22T01:27:51.377Z,1003
2019-05-22T01:33:01.425Z,1003
2019-05-22T01:38:06.310Z,1003
2019-05-22T01:43:11.331Z,1003
2019-05-22T01:48:16.409Z,1003
2019-05-22T01:58:16.497Z,1003
2019-05-22T02:03:21.683Z,1003
2019-05-22T02:08:26.482Z,1003
2019-05-22T02:13:36.614Z,1003
2019-05-22T02:18:46.536Z,1003
2019-05-22T02:23:51.604Z,1003
2019-05-22T02:28:56.545Z,1004
2019-05-22T02:34:01.543Z,1003
2019-05-22T02:44:01.637Z,1004
2019-05-22T02:49:06.648Z,1004
2019-05-22T02:54:11.693Z,1004
2019-05-22T02:59:21.777Z,1004
2019-05-22T03:04:31.674Z,1004
2019-05-22T03:09:36.687Z,1003
2019-05-22T03:14:41.675Z,1004
2019-05-22T03:19:46.755Z,1004
2019-05-22T03:24:51.687Z,1004
2019-05-22T03:30:11.709Z,1004
2019-05-22T03:35:26.782Z,1004
2019-05-22T03:40:36.676Z,1004
2019-05-22T03:45:46.635Z,1004
2019-05-22T03:50:51.649Z,1004
2019-05-22T03:55:56.701Z,1004
2019-05-22T04:01:01.714Z,1004
2019-05-22T04:06:06.692Z,1004
2019-05-22T04:11:16.891Z,1004
2019-05-22T04:16:26.781Z,1004
2019-05-22T04:21:31.610Z,1004
2019-05-22T04:26:36.636Z,1004
2019-05-22T04:31:41.662Z,1004
2019-05-22T04:36:46.563Z,1004
2019-05-22T04:41:56.659Z,1004
2019-05-22T04:47:06.626Z,1004
2019-05-22T04:52:11.601Z,1004
2019-05-22T04:57:16.607Z,1005
2019-05-22T05:02:21.610Z,1005
2019-05-22T05:07:26.570Z,1005
2019-05-22T05:12:36.632Z,1005
2019-05-22T05:17:46.622Z,1005
2019-05-22T05:22:51.772Z,1005
2019-05-22T05:27:56.591Z,1005
2019-05-22T05:33:01.727Z,1005
2019-05-22T05:38:06.615Z,1005
2019-05-22T05:43:16.902Z,1005
2019-05-22T05:48:26.617Z,1005
2019-05-22T05:53:31.664Z,1005
2019-05-22T05:58:36.563Z,1005
2019-05-22T06:03:41.560Z,1005
2019-05-22T06:13:41.780Z,1005
2019-05-22T06:18:46.918Z,1005
2019-05-22T06:23:52.056Z,1005
2019-05-22T06:29:02.003Z,1005
2019-05-22T06:34:12.146Z,1005
2019-05-22T06:44:11.845Z,1005
2019-05-22T06:49:16.855Z,1005
2019-05-22T06:54:21.905Z,1005
2019-05-22T06:59:31.787Z,1005
2019-05-22T07:04:41.831Z,1006
2019-05-22T07:09:46.905Z,1005
2019-05-22T07:14:51.894Z,1006
2019-05-22T07:19:56.843Z,1006
2019-05-22T07:25:01.817Z,1006
2019-05-22T07:30:11.862Z,1006
2019-05-22T07:35:21.771Z,1006
2019-05-22T07:40:26.965Z,1006
2019-05-22T07:45:31.851Z,1006
2019-05-22T07:50:37.045Z,1006
2019-05-22T07:55:41.971Z,1006
2019-05-22T08:00:51.916Z,1006
2019-05-22T08:06:02.040Z,1006
2019-05-22T08:11:06.878Z,1006
2019-05-22T08:16:11.810Z,1006
2019-05-22T08:26:12.284Z,1006
2019-05-22T08:31:17.023Z,1006
2019-05-22T08:36:22.068Z,1006
2019-05-22T08:41:32.534Z,1006
2019-05-22T08:46:41.990Z,1006
2019-05-22T08:51:47.203Z,1006
2019-05-22T08:56:52.044Z,1006
2019-05-22T09:01:57.052Z,1006
2019-05-22T09:07:02.377Z,1006
2019-05-22T09:12:12.014Z,1006
2019-05-22T09:17:22.050Z,1007
2019-05-22T09:23:34.378Z,1006
2019-05-22T09:27:31.996Z,1006
2019-05-22T09:32:37.028Z,1007
2019-05-22T09:37:41.989Z,1007
2019-05-22T09:42:52.057Z,1007
2019-05-22T09:48:02.237Z,1007
2019-05-22T09:53:07.024Z,1007
2019-05-22T09:58:12.054Z,1007
2019-05-22T10:08:12.196Z,1007
2019-05-22T10:13:17.276Z,1007
2019-05-22T10:18:22.247Z,1007
2019-05-22T10:23:32.260Z,1007
2019-05-22T10:28:42.221Z,1007
2019-05-22T10:33:47.153Z,1007
2019-05-22T10:38:52.113Z,1007
2019-05-22T10:43:57.186Z,1007
2019-05-22T10:49:02.086Z,1007
2019-05-22T10:54:12.516Z,1007
2019-05-22T10:59:22.105Z,1007
2019-05-22T11:04:27.089Z,1007
2019-05-22T11:09:32.056Z,1007
2019-05-22T11:14:37.068Z,1007
2019-05-22T11:24:37.327Z,1007
2019-05-22T11:29:42.398Z,1007
2019-05-22T11:34:47.386Z,1008
2019-05-22T11:39:57.402Z,1008
2019-05-22T11:45:07.338Z,1008
2019-05-22T11:50:12.534Z,1008
2019-05-22T11:55:17.305Z,1008
2019-05-22T12:00:22.346Z,1008
2019-05-22T12:05:27.292Z,1008
2019-05-22T12:10:37.337Z,1008
2019-05-22T12:15:47.324Z,1008
2019-05-22T12:20:52.352Z,1008
2019-05-22T12:25:57.293Z,1008
2019-05-22T12:31:02.348Z,1008
2019-05-22T12:41:02.736Z,1008
2019-05-22T12:46:07.644Z,1008
2019-05-22T12:51:12.697Z,1008
2019-05-22T12:56:22.934Z,1008
2019-05-22T13:01:32.591Z,1008
2019-05-22T13:06:37.703Z,1008
2019-05-22T13:11:42.675Z,1008
2019-05-22T13:16:49.725Z,1008
2019-05-22T13:21:52.783Z,1008
2019-05-22T13:27:02.599Z,1008
2019-05-22T13:32:12.713Z,1008
2019-05-22T13:37:17.543Z,1008
2019-05-22T13:42:22.695Z,1008
2019-05-22T13:47:27.690Z,1008
2019-05-22T13:52:32.599Z,1008
2019-05-22T13:57:42.550Z,1008
2019-05-22T14:02:52.639Z,1008
2019-05-22T14:07:57.661Z,1008
2019-05-22T14:13:02.657Z,1008
2019-05-22T14:18:07.651Z,1008
2019-05-22T14:23:12.669Z,1008
2019-05-22T14:28:17.672Z,1008
2019-05-22T14:33:22.584Z,1008
2019-05-22T14:38:27.637Z,1008
2019-05-22T14:43:32.602Z,1008
2019-05-22T14:48:37.561Z,1008
2019-05-22T14:53:42.580Z,1008
2019-05-22T14:58:47.881Z,1009
2019-05-22T15:03:52.616Z,1009
2019-05-22T15:09:02.667Z,1009
2019-05-22T15:14:12.586Z,1009
2019-05-22T15:19:17.548Z,1009
2019-05-22T15:24:22.563Z,1009
2019-05-22T15:29:27.525Z,1009
2019-05-22T15:34:32.765Z,1009
2019-05-22T15:39:42.592Z,1009
2019-05-22T15:44:52.527Z,1009
2019-05-22T15:54:52.826Z,1009
2019-05-22T15:59:57.796Z,1009
2019-05-22T16:05:02.825Z,1009
2019-05-22T16:10:12.702Z,1009
2019-05-22T16:15:22.715Z,1009
2019-05-22T16:20:27.759Z,1009
2019-05-22T16:25:32.711Z,1009
2019-05-22T16:30:37.689Z,1009
2019-05-22T16:35:42.718Z,1009
2019-05-22T16:40:52.837Z,1009
2019-05-22T16:46:02.747Z,1009
2019-05-22T16:51:07.647Z,1009
2019-05-22T16:56:12.624Z,1009
2019-05-22T17:01:17.735Z,1009
2019-05-22T17:06:23.010Z,1009
2019-05-22T17:11:32.721Z,1009
2019-05-22T17:16:42.990Z,1009
2019-05-22T17:21:47.706Z,1009
2019-05-22T17:26:52.641Z,1009
2019-05-22T17:31:57.791Z,1009
2019-05-22T17:37:02.659Z,1009
2019-05-22T17:47:07.058Z,1009
2019-05-22T17:52:07.820Z,1009
2019-05-22T17:57:12.953Z,1009
2019-05-22T18:02:22.877Z,1009
2019-05-22T18:07:33.066Z,1009
2019-05-22T18:12:37.990Z,1010
2019-05-22T18:17:42.981Z,1010
2019-05-22T18:22:47.887Z,1010
2019-05-22T18:27:52.984Z,1010
2019-05-22T18:33:03.037Z,1010
2019-05-22T18:38:12.910Z,1010
2019-05-22T18:43:23.319Z,1010
2019-05-22T18:48:22.890Z,1010
2019-05-22T18:53:27.900Z,1010
2019-05-22T18:58:32.901Z,1010
2019-05-22T19:03:37.945Z,1010
2019-05-22T19:08:43.077Z,1010
2019-05-22T19:13:47.850Z,1010
2019-05-22T19:18:52.931Z,1010
2019-05-22T19:23:57.841Z,1010
2019-05-22T19:29:02.954Z,1010
2019-05-22T19:34:07.986Z,1010
2019-05-22T19:39:12.881Z,1010
2019-05-22T19:44:22.866Z,1010
2019-05-22T19:49:32.849Z,1011
2019-05-22T19:54:37.784Z,1011
2019-05-22T19:59:43.140Z,1011
2019-05-22T20:04:47.869Z,1011
2019-05-22T20:09:52.859Z,1011
2019-05-22T20:15:02.959Z,1011
2019-05-22T20:20:12.824Z,1011
2019-05-22T20:25:17.905Z,1011
2019-05-22T20:30:22.822Z,1011
2019-05-22T20:35:27.835Z,1011
2019-05-22T20:40:32.856Z,1011
2019-05-22T20:45:42.892Z,1011
2019-05-22T20:50:52.842Z,1011
2019-05-22T20:55:57.775Z,1011
2019-05-22T21:05:58.031Z,1011
2019-05-22T21:11:03.084Z,1011
2019-05-22T21:16:08.277Z,1011
2019-05-22T21:21:18.040Z,1011
2019-05-22T21:26:28.066Z,1011
2019-05-22T21:31:33.095Z,1011
2019-05-22T21:36:38.018Z,1011
2019-05-22T21:41:42.991Z,1011
2019-05-22T21:46:48.010Z,1011
2019-05-22T21:51:58.052Z,1011
2019-05-22T21:57:07.943Z,1011
2019-05-22T22:02:12.996Z,1011
2019-05-22T22:07:18.057Z,1011
2019-05-22T22:12:23.062Z,1011
2019-05-22T22:17:28.042Z,1011
2019-05-22T22:22:33.091Z,1011
2019-05-22T22:27:42.964Z,1011
2019-05-22T22:37:48.124Z,1011
2019-05-22T22:42:53.120Z,1011
2019-05-22T22:47:58.137Z,1011
2019-05-22T22:53:08.086Z,1011
2019-05-22T22:58:18.386Z,1011
2019-05-22T23:03:23.099Z,1011
2019-05-22T23:08:28.083Z,1011
2019-05-22T23:13:33.124Z,1011
2019-05-22T23:18:38.130Z,1011
2019-05-22T23:23:48.266Z,1011
2019-05-22T23:28:58.115Z,1011
2019-05-22T23:34:03.056Z,1011
2019-05-22T23:39:08.089Z,1011
2019-05-22T23:44:13.073Z,1012
2019-05-22T23:49:18.139Z,1012
2019-05-22T23:54:28.054Z,1012
2019-05-22T23:59:38.073Z,1012
